Time;durP1;ratioP1;P1;durP2;ratioP2;P2;SDS_P1;SDS_P2;PMS_P1;PMS_P2;Temp;Humidity;BMP_temperature;BMP_pressure;BME280_temperature;BME280_humidity;BME280_pressure;Samples;Min_cycle;Max_cycle;Signal;HPM_P1;HPM_P2
2023/08/21 00:00:52;;;;;;;11.27;2.45;;;17.30;99.90;;;;;;4991177;28;20067;-77
2023/08/21 00:03:18;;;;;;;10.13;2.15;;;17.20;99.90;;;;;;4990984;28;20029;-77
2023/08/21 00:05:44;;;;;;;10.63;2.10;;;17.20;99.90;;;;;;4991559;28;20364;-78
2023/08/21 00:08:09;;;;;;;8.43;2.00;;;17.20;99.90;;;;;;4991298;28;20030;-77
2023/08/21 00:10:38;;;;;;;9.57;1.67;;;17.30;99.90;;;;;;4991003;28;20027;-77
2023/08/21 00:13:04;;;;;;;12.27;2.22;;;17.30;99.90;;;;;;4989980;28;20460;-77
2023/08/21 00:15:30;;;;;;;7.53;1.80;;;17.20;99.90;;;;;;4990907;28;20444;-78
2023/08/21 00:17:56;;;;;;;10.68;2.35;;;17.30;99.90;;;;;;4991133;28;20029;-78
2023/08/21 00:20:22;;;;;;;9.40;1.88;;;17.30;99.90;;;;;;4989835;28;20023;-78
2023/08/21 00:22:47;;;;;;;10.70;1.85;;;17.20;99.90;;;;;;4991514;28;20123;-78
2023/08/21 00:25:13;;;;;;;11.05;2.05;;;17.20;99.90;;;;;;4991461;28;20390;-78
2023/08/21 00:27:39;;;;;;;6.82;1.60;;;17.20;99.90;;;;;;4989337;28;20451;-78
2023/08/21 00:30:05;;;;;;;9.43;2.28;;;17.20;99.90;;;;;;4991018;28;20489;-79
2023/08/21 00:32:31;;;;;;;8.75;2.28;;;17.20;99.90;;;;;;4990576;28;20418;-78
2023/08/21 00:34:57;;;;;;;8.50;1.75;;;17.20;99.90;;;;;;4993048;28;20026;-78
2023/08/21 00:37:23;;;;;;;4.85;1.70;;;17.20;99.90;;;;;;4993319;28;20027;-78
2023/08/21 00:39:48;;;;;;;6.75;1.63;;;17.20;99.90;;;;;;4995302;28;20057;-78
2023/08/21 00:42:14;;;;;;;11.63;1.98;;;17.20;99.90;;;;;;4994973;28;20038;-78
2023/08/21 00:44:40;;;;;;;8.00;1.65;;;17.20;99.90;;;;;;4991446;28;20054;-77
2023/08/21 00:47:06;;;;;;;7.70;1.70;;;17.20;99.90;;;;;;4975301;28;20043;-78
2023/08/21 00:49:32;;;;;;;8.35;1.80;;;17.20;99.90;;;;;;4974621;28;20081;-79
2023/08/21 00:51:59;;;;;;;9.43;2.28;;;17.20;99.90;;;;;;4975270;28;20027;-79
2023/08/21 00:54:25;;;;;;;9.38;1.90;;;17.20;99.90;;;;;;4974373;28;20473;-80
2023/08/21 00:56:52;;;;;;;13.25;1.88;;;17.20;99.90;;;;;;4975357;28;20066;-79
2023/08/21 00:59:19;;;;;;;5.40;1.88;;;17.20;99.90;;;;;;4974727;28;20460;-79
2023/08/21 01:01:45;;;;;;;10.07;2.13;;;17.20;99.90;;;;;;4974934;28;20035;-79
2023/08/21 01:04:11;;;;;;;6.32;1.50;;;17.30;99.90;;;;;;4974608;28;20463;-79
2023/08/21 01:06:37;;;;;;;8.27;2.17;;;17.30;99.90;;;;;;4974719;28;20041;-78
2023/08/21 01:09:39;;;;;;;8.45;1.50;;;17.30;99.90;;;;;;4974946;28;20023;-78
2023/08/21 01:12:29;;;;;;;7.72;1.90;;;17.20;99.90;;;;;;4974988;28;20038;-77
2023/08/21 01:15:00;;;;;;;7.93;1.85;;;17.30;99.90;;;;;;4975486;28;20027;-78
2023/08/21 01:17:28;;;;;;;7.15;1.63;;;17.20;99.90;;;;;;4974471;28;20031;-78
2023/08/21 01:19:55;;;;;;;3.92;1.30;;;17.30;99.90;;;;;;4975178;28;20019;-79
2023/08/21 01:22:36;;;;;;;4.93;1.45;;;17.20;99.90;;;;;;4974205;28;20054;-79
2023/08/21 01:25:01;;;;;;;6.35;1.65;;;17.30;99.90;;;;;;4974095;28;20046;-78
2023/08/21 01:27:27;;;;;;;5.95;1.60;;;17.20;99.90;;;;;;4973859;28;20034;-78
2023/08/21 01:29:54;;;;;;;6.40;1.63;;;17.20;99.90;;;;;;4974550;28;20102;-78
2023/08/21 01:32:38;;;;;;;5.20;1.60;;;17.20;99.90;;;;;;4973700;28;20023;-78
2023/08/21 01:35:06;;;;;;;5.72;1.52;;;17.20;99.90;;;;;;4974614;28;20425;-78
2023/08/21 01:37:32;;;;;;;9.10;1.38;;;17.20;99.90;;;;;;4973896;28;20035;-78
2023/08/21 01:39:58;;;;;;;6.60;1.77;;;17.20;99.90;;;;;;4974274;28;20499;-78
2023/08/21 01:42:24;;;;;;;8.68;1.60;;;17.20;99.90;;;;;;4973075;28;20037;-78
2023/08/21 01:44:50;;;;;;;2.80;1.27;;;17.20;99.90;;;;;;4974407;28;20026;-79
2023/08/21 01:47:16;;;;;;;7.47;1.60;;;17.20;99.90;;;;;;4972224;28;20205;-79
2023/08/21 01:49:41;;;;;;;7.80;1.42;;;17.20;99.90;;;;;;4974012;28;20453;-78
2023/08/21 01:52:07;;;;;;;5.20;1.33;;;17.20;99.90;;;;;;4974922;28;20171;-79
2023/08/21 01:54:33;;;;;;;6.63;1.60;;;17.20;99.90;;;;;;4974887;28;20054;-78
2023/08/21 01:56:59;;;;;;;7.07;1.50;;;17.20;99.90;;;;;;4975420;28;20429;-78
2023/08/21 01:59:25;;;;;;;3.05;1.48;;;17.30;99.90;;;;;;4973578;28;20118;-79
2023/08/21 02:01:51;;;;;;;6.70;2.00;;;17.20;99.90;;;;;;4973859;28;20173;-78
2023/08/21 02:04:17;;;;;;;11.90;1.95;;;17.30;99.90;;;;;;4974009;28;20413;-79
2023/08/21 02:06:44;;;;;;;7.30;1.65;;;17.20;99.90;;;;;;4973533;28;20102;-78
2023/08/21 02:09:10;;;;;;;4.80;1.55;;;17.20;99.90;;;;;;4974078;28;20030;-78
2023/08/21 02:11:35;;;;;;;5.35;1.58;;;17.10;99.90;;;;;;4973526;28;20027;-78
2023/08/21 02:14:02;;;;;;;6.43;1.30;;;17.20;99.90;;;;;;4973730;28;20019;-79
2023/08/21 02:16:28;;;;;;;4.65;1.30;;;17.20;99.90;;;;;;4973302;28;20031;-79
2023/08/21 02:18:54;;;;;;;3.95;1.20;;;17.20;99.90;;;;;;4973441;28;20026;-78
2023/08/21 02:21:20;;;;;;;5.45;1.25;;;17.20;99.90;;;;;;4973619;28;20380;-78
2023/08/21 02:23:45;;;;;;;3.95;1.27;;;17.30;99.90;;;;;;4973099;28;20035;-78
2023/08/21 02:26:11;;;;;;;7.93;1.48;;;17.30;99.90;;;;;;4972071;28;20539;-78
2023/08/21 02:28:37;;;;;;;7.63;1.30;;;17.20;99.90;;;;;;4973382;28;20062;-81
2023/08/21 02:31:02;;;;;;;3.88;1.67;;;17.20;99.90;;;;;;4973686;28;20106;-77
2023/08/21 02:33:28;;;;;;;5.55;2.03;;;17.30;99.90;;;;;;4972680;28;20026;-77
2023/08/21 02:35:54;;;;;;;5.60;1.40;;;17.20;99.90;;;;;;4973526;28;20050;-78
2023/08/21 02:38:21;;;;;;;4.50;1.23;;;17.20;99.90;;;;;;4972111;28;20023;-78
2023/08/21 02:40:47;;;;;;;4.43;1.20;;;17.10;99.90;;;;;;4971493;28;20403;-78
2023/08/21 02:43:13;;;;;;;8.80;1.80;;;17.10;99.90;;;;;;4973303;28;20109;-78
2023/08/21 02:45:39;;;;;;;4.35;1.08;;;17.10;99.90;;;;;;4972343;28;20075;-79
2023/08/21 02:48:04;;;;;;;5.28;1.42;;;17.10;99.90;;;;;;4972979;28;20437;-78
2023/08/21 02:50:30;;;;;;;5.28;1.77;;;17.00;99.90;;;;;;4972980;28;20077;-79
2023/08/21 02:52:56;;;;;;;3.78;1.40;;;17.10;99.90;;;;;;4973423;28;20095;-78
2023/08/21 02:55:22;;;;;;;4.85;1.20;;;17.00;99.90;;;;;;4972933;28;20499;-77
2023/08/21 02:57:47;;;;;;;3.15;1.10;;;17.00;99.90;;;;;;4972138;28;20046;-78
2023/08/21 03:00:13;;;;;;;5.40;1.25;;;17.00;99.90;;;;;;4972954;28;20034;-78
2023/08/21 03:02:42;;;;;;;6.22;1.55;;;17.00;99.90;;;;;;4972596;28;20050;-78
2023/08/21 03:05:09;;;;;;;5.20;1.42;;;17.00;99.90;;;;;;4971472;28;20444;-79
2023/08/21 03:07:35;;;;;;;6.55;1.23;;;17.00;99.90;;;;;;4972525;28;20027;-77
2023/08/21 03:10:02;;;;;;;7.13;1.63;;;17.00;99.90;;;;;;4973010;28;20125;-78
2023/08/21 03:12:28;;;;;;;4.18;1.02;;;17.00;99.90;;;;;;4971136;28;20421;-79
2023/08/21 03:14:54;;;;;;;4.95;1.30;;;17.00;99.90;;;;;;4973533;28;20027;-78
2023/08/21 03:17:19;;;;;;;2.67;1.02;;;17.00;99.90;;;;;;4972996;28;20368;-79
2023/08/21 03:19:45;;;;;;;2.47;0.90;;;17.00;99.90;;;;;;4991582;28;20041;-79
2023/08/21 03:22:11;;;;;;;5.80;1.00;;;17.10;99.90;;;;;;4994141;28;20405;-79
2023/08/21 03:24:38;;;;;;;2.58;0.88;;;17.10;99.90;;;;;;4993156;28;20133;-79
2023/08/21 03:27:04;;;;;;;5.45;1.98;;;17.20;99.90;;;;;;4992288;28;20068;-79
2023/08/21 03:29:29;;;;;;;3.08;0.73;;;17.20;99.90;;;;;;4991795;28;20024;-80
2023/08/21 03:31:55;;;;;;;3.47;0.73;;;17.20;99.90;;;;;;4992108;28;20160;-78
2023/08/21 03:34:21;;;;;;;6.35;1.40;;;17.20;99.90;;;;;;4991499;28;20033;-78
2023/08/21 03:36:47;;;;;;;6.45;0.95;;;17.30;99.90;;;;;;4991182;28;20026;-79
2023/08/21 03:39:13;;;;;;;2.55;0.90;;;17.20;99.90;;;;;;4991732;28;20571;-79
2023/08/21 03:41:39;;;;;;;3.60;0.90;;;17.40;99.90;;;;;;4990896;28;20026;-79
2023/08/21 03:44:04;;;;;;;1.55;0.60;;;17.30;99.90;;;;;;4991842;28;20121;-80
2023/08/21 03:46:30;;;;;;;1.98;0.70;;;17.30;99.90;;;;;;4990766;28;20038;-79
2023/08/21 03:48:56;;;;;;;2.35;0.75;;;17.40;99.90;;;;;;4991414;28;20124;-78
2023/08/21 03:51:22;;;;;;;3.63;0.90;;;17.30;99.90;;;;;;4991360;28;20085;-78
2023/08/21 03:53:49;;;;;;;4.35;1.30;;;17.40;99.90;;;;;;4990684;28;20114;-79
2023/08/21 03:56:14;;;;;;;2.65;0.70;;;17.40;99.90;;;;;;4991275;28;20045;-79
2023/08/21 03:58:40;;;;;;;2.83;1.05;;;17.40;99.90;;;;;;4990969;28;20117;-78
2023/08/21 04:01:06;;;;;;;3.15;0.88;;;17.40;99.90;;;;;;4991328;28;20026;-78
2023/08/21 04:03:32;;;;;;;2.65;1.05;;;17.30;99.90;;;;;;4991409;28;20034;-78
2023/08/21 04:05:58;;;;;;;3.42;0.88;;;17.30;99.90;;;;;;4991270;28;20057;-78
2023/08/21 04:08:24;;;;;;;2.83;0.80;;;17.30;99.90;;;;;;4990997;28;20114;-78
2023/08/21 04:10:52;;;;;;;1.50;0.90;;;17.30;99.90;;;;;;4990220;28;20126;-78
2023/08/21 04:13:18;;;;;;;1.98;0.82;;;17.20;99.90;;;;;;4991295;28;20019;-77
2023/08/21 04:15:49;;;;;;;3.35;0.80;;;17.20;99.90;;;;;;4990700;28;20044;-77
2023/08/21 04:18:14;;;;;;;2.53;0.73;;;17.20;99.90;;;;;;4991175;28;20105;-78
2023/08/21 04:20:40;;;;;;;2.40;0.77;;;17.20;99.90;;;;;;4990620;28;20488;-78
2023/08/21 04:23:06;;;;;;;4.47;1.05;;;17.20;99.90;;;;;;4991137;28;20027;-78
2023/08/21 04:25:32;;;;;;;2.22;0.88;;;17.20;99.90;;;;;;4990826;28;20038;-78
2023/08/21 04:27:57;;;;;;;2.40;0.82;;;17.20;99.90;;;;;;4990686;28;20065;-78
2023/08/21 04:30:23;;;;;;;2.55;0.82;;;17.30;99.90;;;;;;4990978;28;20042;-78
2023/08/21 04:32:49;;;;;;;1.80;0.77;;;17.30;99.90;;;;;;4990413;28;20034;-78
2023/08/21 04:35:15;;;;;;;2.92;0.88;;;17.30;99.90;;;;;;4990893;28;20049;-78
2023/08/21 04:37:46;;;;;;;1.80;0.65;;;17.30;99.90;;;;;;4990476;28;20026;-78
2023/08/21 04:40:12;;;;;;;0.85;0.77;;;17.30;99.90;;;;;;4991077;28;20053;-78
2023/08/21 04:42:38;;;;;;;2.95;0.82;;;17.30;99.90;;;;;;4989283;28;20026;-79
2023/08/21 04:45:05;;;;;;;1.40;0.60;;;17.40;99.90;;;;;;4991253;28;20093;-79
2023/08/21 04:47:31;;;;;;;2.45;0.65;;;17.40;99.90;;;;;;4990717;28;20449;-79
2023/08/21 04:49:57;;;;;;;3.03;0.73;;;17.40;99.90;;;;;;4990755;28;20030;-79
2023/08/21 04:52:24;;;;;;;2.03;0.68;;;17.50;99.90;;;;;;4989434;28;20113;-78
2023/08/21 04:54:50;;;;;;;3.42;0.90;;;17.50;99.90;;;;;;4990422;28;20026;-79
2023/08/21 04:57:17;;;;;;;4.25;1.20;;;17.50;99.90;;;;;;4990493;28;20555;-80
2023/08/21 04:59:43;;;;;;;3.75;0.90;;;17.60;99.90;;;;;;4989941;28;20574;-79
2023/08/21 05:02:10;;;;;;;1.95;0.88;;;17.50;99.90;;;;;;4990792;28;20102;-79
2023/08/21 05:04:36;;;;;;;1.83;0.80;;;17.50;99.90;;;;;;4990052;28;20035;-79
2023/08/21 05:07:03;;;;;;;2.55;1.00;;;17.60;99.90;;;;;;4990610;28;20069;-78
2023/08/21 05:09:29;;;;;;;3.17;1.00;;;17.60;99.90;;;;;;4990904;28;20030;-78
2023/08/21 05:11:55;;;;;;;2.30;0.90;;;17.70;99.90;;;;;;4990191;28;20089;-78
2023/08/21 05:14:22;;;;;;;6.68;0.90;;;17.70;99.90;;;;;;4990715;28;20030;-79
2023/08/21 05:16:49;;;;;;;3.40;1.00;;;17.70;99.90;;;;;;4990525;28;20432;-78
2023/08/21 05:19:15;;;;;;;4.25;0.80;;;17.70;99.90;;;;;;4990779;28;20356;-78
2023/08/21 05:21:41;;;;;;;4.55;1.17;;;17.80;99.90;;;;;;4991758;28;20117;-78
2023/08/21 05:24:06;;;;;;;3.05;1.05;;;17.80;99.90;;;;;;4993016;28;20177;-79
2023/08/21 05:26:32;;;;;;;3.35;1.15;;;17.80;99.90;;;;;;4994251;28;20475;-79
2023/08/21 05:28:58;;;;;;;4.10;1.30;;;17.80;99.90;;;;;;4993872;28;20034;-79
2023/08/21 05:31:25;;;;;;;8.05;1.42;;;17.80;99.90;;;;;;4993997;28;20436;-79
2023/08/21 05:33:50;;;;;;;4.88;1.33;;;17.70;99.90;;;;;;4993691;28;20030;-78
2023/08/21 05:36:16;;;;;;;4.55;1.45;;;17.80;99.90;;;;;;4993900;28;20045;-79
2023/08/21 05:38:42;;;;;;;3.40;1.35;;;17.80;99.90;;;;;;4991900;28;20061;-78
2023/08/21 05:41:07;;;;;;;5.68;1.58;;;17.80;99.90;;;;;;4993902;28;20507;-77
2023/08/21 05:43:34;;;;;;;9.02;1.30;;;17.80;99.90;;;;;;4993912;28;20032;-78
2023/08/21 05:46:00;;;;;;;6.93;1.40;;;17.80;99.90;;;;;;4993336;28;20035;-78
2023/08/21 05:48:26;;;;;;;5.85;1.40;;;17.90;99.90;;;;;;4993887;28;20395;-78
2023/08/21 05:50:52;;;;;;;6.85;1.48;;;17.90;99.90;;;;;;4993226;28;20029;-78
2023/08/21 05:53:18;;;;;;;3.88;1.02;;;17.90;99.90;;;;;;4994139;28;20038;-79
2023/08/21 05:55:44;;;;;;;6.00;1.17;;;17.90;99.90;;;;;;4993516;28;20528;-79
2023/08/21 05:58:10;;;;;;;6.18;1.30;;;18.00;99.90;;;;;;4993467;28;20033;-79
2023/08/21 06:00:35;;;;;;;4.25;1.40;;;18.00;99.90;;;;;;4993436;28;20114;-79
2023/08/21 06:03:01;;;;;;;4.50;1.27;;;18.00;99.90;;;;;;4991790;28;20030;-79
2023/08/21 06:05:27;;;;;;;4.18;1.35;;;18.00;99.90;;;;;;4993640;28;20189;-79
2023/08/21 06:07:53;;;;;;;5.07;1.38;;;18.10;99.90;;;;;;4992837;28;20190;-78
2023/08/21 06:10:19;;;;;;;7.63;1.40;;;18.10;99.90;;;;;;4992307;28;20388;-78
2023/08/21 06:12:44;;;;;;;7.65;1.52;;;18.10;99.90;;;;;;4992842;28;20033;-77
2023/08/21 06:15:11;;;;;;;5.85;1.77;;;18.10;99.90;;;;;;4993960;28;20511;-78
2023/08/21 06:17:38;;;;;;;3.30;1.20;;;18.10;99.90;;;;;;4993232;28;20048;-78
2023/08/21 06:20:11;;;;;;;6.95;1.33;;;18.10;99.90;;;;;;4993029;28;20023;-79
2023/08/21 06:22:37;;;;;;;5.75;1.50;;;18.10;99.90;;;;;;4993662;28;20143;-79
2023/08/21 06:25:04;;;;;;;5.80;1.80;;;18.10;99.90;;;;;;4993162;28;20037;-79
2023/08/21 06:27:30;;;;;;;4.68;1.52;;;18.20;99.90;;;;;;4993448;28;20185;-79
2023/08/21 06:29:55;;;;;;;2.58;1.27;;;18.30;99.90;;;;;;4992501;28;20142;-79
2023/08/21 06:32:22;;;;;;;5.22;1.30;;;18.50;99.90;;;;;;4992490;28;20072;-79
2023/08/21 06:34:47;;;;;;;4.40;1.30;;;18.60;99.90;;;;;;4992727;28;20029;-79
2023/08/21 06:37:13;;;;;;;4.85;1.50;;;18.70;99.90;;;;;;4993212;28;20108;-79
2023/08/21 06:39:39;;;;;;;4.82;1.08;;;18.90;99.90;;;;;;4993001;28;20112;-79
2023/08/21 06:42:05;;;;;;;5.68;1.30;;;19.00;99.90;;;;;;4991326;28;20034;-79
2023/08/21 06:44:31;;;;;;;6.03;1.40;;;19.00;99.90;;;;;;4993407;28;20064;-79
2023/08/21 06:46:57;;;;;;;2.90;1.10;;;19.00;99.90;;;;;;4992639;28;20043;-79
2023/08/21 06:49:23;;;;;;;7.45;1.50;;;19.10;99.90;;;;;;4993170;28;20444;-79
2023/08/21 06:51:49;;;;;;;4.13;0.88;;;19.20;99.90;;;;;;4992267;28;20030;-78
2023/08/21 06:54:15;;;;;;;2.78;1.00;;;19.20;99.90;;;;;;4992940;28;20053;-80
2023/08/21 06:56:41;;;;;;;6.57;1.40;;;19.20;99.90;;;;;;4991494;28;20472;-81
2023/08/21 06:59:07;;;;;;;4.05;1.20;;;19.30;99.90;;;;;;4992297;28;20031;-78
2023/08/21 07:01:33;;;;;;;4.82;1.35;;;19.40;99.90;;;;;;4993107;28;20361;-79
2023/08/21 07:03:58;;;;;;;5.88;1.02;;;19.40;99.90;;;;;;4992211;28;20046;-79
2023/08/21 07:06:24;;;;;;;4.88;0.95;;;19.50;99.90;;;;;;4993106;28;20030;-78
2023/08/21 07:08:50;;;;;;;4.25;1.10;;;19.60;99.90;;;;;;4991873;28;20038;-79
2023/08/21 07:11:17;;;;;;;3.90;1.20;;;19.60;99.90;;;;;;4992124;28;20458;-79
2023/08/21 07:13:43;;;;;;;3.83;1.20;;;19.70;99.90;;;;;;4992095;28;20061;-78
2023/08/21 07:16:08;;;;;;;4.18;1.10;;;19.70;99.90;;;;;;4992221;28;20058;-78
2023/08/21 07:18:35;;;;;;;4.18;1.13;;;19.70;99.90;;;;;;4992863;28;20026;-78
2023/08/21 07:21:04;;;;;;;5.72;1.50;;;19.80;99.90;;;;;;4994604;28;20455;-78
2023/08/21 07:23:34;;;;;;;4.82;1.20;;;19.90;99.90;;;;;;4999775;28;20022;-79
2023/08/21 07:25:59;;;;;;;8.57;1.75;;;19.90;99.90;;;;;;4996858;28;20038;-78
2023/08/21 07:28:26;;;;;;;6.25;1.40;;;19.90;99.90;;;;;;5004350;28;20029;-81
2023/08/21 07:30:58;;;;;;;4.57;1.45;;;19.90;99.90;;;;;;5010243;28;20026;-81
2023/08/21 07:33:24;;;;;;;4.15;1.25;;;19.80;99.90;;;;;;4993230;28;20044;-79
2023/08/21 07:36:04;;;;;;;6.57;2.10;;;19.80;99.90;;;;;;4991638;28;20034;-79
2023/08/21 07:38:29;;;;;;;5.28;1.48;;;19.80;99.90;;;;;;4991979;28;20054;-78
2023/08/21 07:41:10;;;;;;;7.90;2.08;;;19.80;99.90;;;;;;4991743;28;20041;-78
2023/08/21 07:43:37;;;;;;;5.43;1.23;;;19.80;99.90;;;;;;4992467;28;20085;-78
2023/08/21 07:46:18;;;;;;;8.10;1.55;;;19.80;99.90;;;;;;4990346;28;20062;-78
2023/08/21 07:48:45;;;;;;;9.60;1.67;;;19.90;99.90;;;;;;4991579;28;20133;-78
2023/08/21 07:51:10;;;;;;;4.68;1.10;;;19.90;99.90;;;;;;4990077;28;20026;-79
2023/08/21 07:53:37;;;;;;;4.75;1.20;;;20.00;99.90;;;;;;4991544;28;20023;-80
2023/08/21 07:56:03;;;;;;;7.13;1.45;;;20.10;99.90;;;;;;4991233;28;20041;-79
2023/08/21 07:58:30;;;;;;;4.47;1.38;;;20.20;99.90;;;;;;4991652;28;20116;-78
2023/08/21 08:00:56;;;;;;;7.40;1.50;;;20.30;99.90;;;;;;4990768;28;20454;-78
2023/08/21 08:03:22;;;;;;;5.28;1.40;;;20.40;99.90;;;;;;4991830;28;20081;-77
2023/08/21 08:05:48;;;;;;;7.47;1.15;;;20.30;99.90;;;;;;4991141;28;20137;-78
2023/08/21 08:08:13;;;;;;;7.85;1.70;;;20.40;99.90;;;;;;4992007;28;20022;-78
2023/08/21 08:10:40;;;;;;;7.28;1.42;;;20.40;99.90;;;;;;4991935;28;20038;-77
2023/08/21 08:13:07;;;;;;;8.32;1.80;;;20.50;99.90;;;;;;4990967;28;20109;-77
2023/08/21 08:15:34;;;;;;;4.88;1.40;;;20.50;99.90;;;;;;4991631;28;20045;-79
2023/08/21 08:18:00;;;;;;;5.07;1.30;;;20.60;99.90;;;;;;4991030;28;20026;-78
2023/08/21 08:20:26;;;;;;;5.93;1.20;;;20.70;99.90;;;;;;4990005;28;20038;-78
2023/08/21 08:22:52;;;;;;;5.30;1.70;;;20.70;99.90;;;;;;4990550;28;20455;-76
2023/08/21 08:25:18;;;;;;;9.02;1.55;;;20.80;99.90;;;;;;4991389;28;20067;-77
2023/08/21 08:27:44;;;;;;;5.50;1.20;;;20.80;99.90;;;;;;4991448;28;20376;-77
2023/08/21 08:30:10;;;;;;;8.57;1.50;;;20.80;99.90;;;;;;4990442;28;20117;-77
2023/08/21 08:32:36;;;;;;;7.10;1.73;;;20.80;99.90;;;;;;4991369;28;20478;-78
2023/08/21 08:35:02;;;;;;;5.13;1.40;;;20.80;99.90;;;;;;4990874;28;20113;-78
2023/08/21 08:37:28;;;;;;;7.43;1.98;;;20.80;99.90;;;;;;4991520;28;20031;-78
2023/08/21 08:39:54;;;;;;;5.43;1.48;;;20.80;99.90;;;;;;4990372;28;20050;-78
2023/08/21 08:42:20;;;;;;;6.75;1.70;;;20.90;99.90;;;;;;4991681;28;20026;-77
2023/08/21 08:44:47;;;;;;;5.90;2.00;;;20.90;99.90;;;;;;4991237;28;20486;-76
2023/08/21 08:47:13;;;;;;;4.97;1.42;;;20.90;99.90;;;;;;4990659;28;20105;-78
2023/08/21 08:49:39;;;;;;;7.60;1.55;;;21.00;99.90;;;;;;4991036;28;20076;-78
2023/08/21 08:52:05;;;;;;;7.82;1.40;;;21.00;99.90;;;;;;4989027;28;20034;-78
2023/08/21 08:54:31;;;;;;;6.18;1.60;;;21.10;99.90;;;;;;4990753;28;20461;-78
2023/08/21 08:56:58;;;;;;;6.22;1.33;;;21.10;99.90;;;;;;4993892;28;20034;-79
2023/08/21 08:59:24;;;;;;;6.22;1.58;;;21.10;99.90;;;;;;4993462;28;20027;-78
2023/08/21 09:01:50;;;;;;;7.65;1.70;;;21.10;99.90;;;;;;4993069;28;20028;-78
2023/08/21 09:04:16;;;;;;;6.97;1.70;;;21.30;99.90;;;;;;4993080;28;20113;-78
2023/08/21 09:06:42;;;;;;;5.03;1.30;;;21.20;99.90;;;;;;4994243;28;20368;-78
2023/08/21 09:09:10;;;;;;;3.63;1.38;;;21.20;99.90;;;;;;4994295;28;20114;-79
2023/08/21 09:11:41;;;;;;;6.38;1.30;;;21.20;99.90;;;;;;4994547;28;20112;-78
2023/08/21 09:14:07;;;;;;;8.73;1.30;;;21.10;99.90;;;;;;4993726;28;20526;-79
2023/08/21 09:16:33;;;;;;;6.45;1.48;;;21.10;99.90;;;;;;4994965;28;20034;-78
2023/08/21 09:18:59;;;;;;;7.03;1.52;;;21.10;99.90;;;;;;4993764;28;20114;-78
2023/08/21 09:21:27;;;;;;;8.07;1.50;;;21.10;99.90;;;;;;4993084;28;20451;-78
2023/08/21 09:24:02;;;;;;;4.57;1.40;;;21.20;99.90;;;;;;4994411;28;20025;-79
2023/08/21 09:26:32;;;;;;;6.63;1.45;;;21.20;99.90;;;;;;4993202;28;20121;-78
2023/08/21 09:28:59;;;;;;;4.75;1.70;;;21.30;99.90;;;;;;4993875;28;20152;-79
2023/08/21 09:31:32;;;;;;;6.18;1.67;;;21.30;99.90;;;;;;4994230;28;20137;-78
2023/08/21 09:34:00;;;;;;;4.32;1.80;;;21.40;99.90;;;;;;4993770;28;20376;-78
2023/08/21 09:36:26;;;;;;;5.60;1.65;;;21.60;99.90;;;;;;4994050;28;20121;-78
2023/08/21 09:38:52;;;;;;;8.90;1.85;;;21.70;99.90;;;;;;4993934;28;20448;-79
2023/08/21 09:41:25;;;;;;;6.63;1.48;;;21.70;99.90;;;;;;4994008;28;20031;-78
2023/08/21 09:43:51;;;;;;;5.57;1.50;;;21.90;99.90;;;;;;4993892;28;20368;-77
2023/08/21 09:46:27;;;;;;;6.43;1.90;;;22.00;99.90;;;;;;4993786;28;20042;-78
2023/08/21 09:48:54;;;;;;;4.50;1.35;;;22.00;99.90;;;;;;4993796;28;20066;-79
2023/08/21 09:51:20;;;;;;;10.27;1.73;;;21.90;99.90;;;;;;4993977;28;20084;-78
2023/08/21 09:53:48;;;;;;;3.70;1.17;;;21.80;99.90;;;;;;4993721;28;20114;-78
2023/08/21 09:56:14;;;;;;;7.70;2.05;;;21.90;99.90;;;;;;4977497;28;20097;-79
2023/08/21 09:58:40;;;;;;;7.05;1.50;;;22.00;99.90;;;;;;4974373;28;20433;-78
2023/08/21 10:01:14;;;;;;;4.88;1.30;;;22.00;99.90;;;;;;4974207;28;20031;-78
2023/08/21 10:03:42;;;;;;;5.72;1.40;;;22.00;99.90;;;;;;4974193;28;20026;-78
2023/08/21 10:06:12;;;;;;;7.35;1.55;;;21.90;99.90;;;;;;4973401;28;20476;-79
2023/08/21 10:08:40;;;;;;;8.32;1.52;;;22.00;99.90;;;;;;4973531;28;20031;-78
2023/08/21 10:11:09;;;;;;;8.95;1.63;;;22.00;99.90;;;;;;4972322;28;20042;-79
2023/08/21 10:13:39;;;;;;;3.25;1.35;;;22.00;99.90;;;;;;4974140;28;20033;-78
2023/08/21 10:16:05;;;;;;;8.73;1.90;;;22.10;99.90;;;;;;4974188;28;20030;-78
2023/08/21 10:18:33;;;;;;;3.30;0.93;;;22.10;99.90;;;;;;4973237;28;20034;-79
2023/08/21 10:21:19;;;;;;;6.45;1.70;;;22.10;99.90;;;;;;4973532;28;20026;-80
2023/08/21 10:23:49;;;;;;;5.90;1.40;;;22.10;99.90;;;;;;4974056;28;20328;-79
2023/08/21 10:26:18;;;;;;;4.85;1.30;;;22.10;99.90;;;;;;4972914;28;20097;-79
2023/08/21 10:28:50;;;;;;;8.65;1.30;;;22.20;99.90;;;;;;4973809;28;20034;-79
2023/08/21 10:31:32;;;;;;;4.03;1.20;;;22.10;99.90;;;;;;4973447;28;20041;-79
2023/08/21 10:34:00;;;;;;;7.80;1.30;;;22.10;99.90;;;;;;4973131;28;20043;-78
2023/08/21 10:36:41;;;;;;;4.50;1.23;;;22.20;99.90;;;;;;4973569;28;20049;-78
2023/08/21 10:39:22;;;;;;;4.28;1.23;;;22.30;99.90;;;;;;4972783;28;20055;-78
2023/08/21 10:41:57;;;;;;;4.45;1.25;;;22.50;99.90;;;;;;4973192;28;20091;-77
2023/08/21 10:44:48;;;;;;;3.97;1.13;;;22.50;99.90;;;;;;4973286;28;20041;-78
2023/08/21 10:47:20;;;;;;;8.70;1.15;;;22.50;99.90;;;;;;4972893;28;20054;-78
2023/08/21 10:49:58;;;;;;;;;;;22.30;99.90;;;;;;4973498;28;20528;-77
2023/08/21 10:52:26;;;;;;;5.70;1.02;;;22.40;99.90;;;;;;4973207;28;20400;-78
2023/08/21 10:54:57;;;;;;;6.57;1.30;;;22.30;99.90;;;;;;4972802;28;20029;-78
2023/08/21 10:57:24;;;;;;;7.45;1.40;;;22.30;99.90;;;;;;4972752;28;20058;-78
2023/08/21 11:00:12;;;;;;;3.53;1.10;;;22.40;99.90;;;;;;4973139;28;20030;-77
2023/08/21 11:02:39;;;;;;;9.90;1.63;;;22.40;99.90;;;;;;4973139;28;20031;-77
2023/08/21 11:05:07;;;;;;;4.38;1.20;;;22.40;99.90;;;;;;4972808;28;20522;-79
2023/08/21 11:07:45;;;;;;;9.70;1.60;;;22.40;99.90;;;;;;4972274;28;20039;-78
2023/08/21 11:10:13;;;;;;;8.80;2.22;;;22.40;99.90;;;;;;4971582;28;20120;-79
2023/08/21 11:12:48;;;;;;;10.10;2.33;;;22.30;99.90;;;;;;4973032;28;20081;-78
2023/08/21 11:15:16;;;;;;;3.60;1.30;;;22.10;99.90;;;;;;4972395;28;20054;-78
2023/08/21 11:17:42;;;;;;;6.75;1.42;;;21.90;99.90;;;;;;4972458;28;20055;-78
2023/08/21 11:20:08;;;;;;;4.57;1.42;;;21.90;99.90;;;;;;4970701;28;20360;-76
2023/08/21 11:22:34;;;;;;;5.60;1.73;;;21.80;99.90;;;;;;4972576;28;20033;-78
2023/08/21 11:24:59;;;;;;;4.20;1.60;;;21.70;99.90;;;;;;4972780;28;20158;-77
2023/08/21 11:27:25;;;;;;;10.93;1.45;;;21.80;99.90;;;;;;4972419;28;20234;-78
2023/08/21 11:29:52;;;;;;;4.13;1.38;;;21.90;99.90;;;;;;4972515;28;20111;-78
2023/08/21 11:32:23;;;;;;;4.68;1.30;;;22.10;99.90;;;;;;4971858;28;20136;-79
2023/08/21 11:34:53;;;;;;;4.05;1.45;;;22.10;99.90;;;;;;4971028;28;20136;-78
2023/08/21 11:37:24;;;;;;;1.83;0.82;;;22.10;99.90;;;;;;4971625;28;20105;-78
2023/08/21 11:39:59;;;;;;;4.97;1.50;;;22.10;99.90;;;;;;4972369;28;20105;-77
2023/08/21 11:42:34;;;;;;;5.13;1.23;;;22.10;99.90;;;;;;4970617;28;20476;-77
2023/08/21 11:45:01;;;;;;;2.97;1.20;;;22.00;99.90;;;;;;4972224;28;20030;-77
2023/08/21 11:47:34;;;;;;;5.10;1.40;;;22.00;99.90;;;;;;4971967;28;20122;-77
2023/08/21 11:50:07;;;;;;;5.40;1.55;;;22.00;99.90;;;;;;4972065;28;20042;-78
2023/08/21 11:52:35;;;;;;;6.32;1.55;;;22.00;99.90;;;;;;4972610;28;20026;-78
2023/08/21 11:55:01;;;;;;;5.15;1.63;;;22.00;99.90;;;;;;4970823;28;20472;-78
2023/08/21 11:57:29;;;;;;;4.07;1.42;;;22.00;99.90;;;;;;4972550;28;20031;-78
2023/08/21 11:59:57;;;;;;;5.88;1.63;;;22.00;99.90;;;;;;4972870;28;20027;-79
2023/08/21 12:02:28;;;;;;;5.03;1.42;;;22.00;99.90;;;;;;4973333;28;20358;-78
2023/08/21 12:05:02;;;;;;;5.22;1.60;;;22.10;99.90;;;;;;4973643;28;20038;-78
2023/08/21 12:07:28;;;;;;;8.80;1.63;;;22.20;99.90;;;;;;4973380;28;20035;-78
2023/08/21 12:09:54;;;;;;;7.15;1.60;;;22.20;99.90;;;;;;4974640;28;20049;-78
2023/08/21 12:12:21;;;;;;;10.50;2.50;;;22.30;99.90;;;;;;4971876;28;20046;-77
2023/08/21 12:14:47;;;;;;;4.65;1.50;;;22.30;99.90;;;;;;4974808;28;20034;-77
2023/08/21 12:17:12;;;;;;;6.43;1.83;;;22.40;99.90;;;;;;4973291;28;20444;-77
2023/08/21 12:19:38;;;;;;;5.80;1.75;;;22.40;99.90;;;;;;4972975;28;20071;-78
2023/08/21 12:22:04;;;;;;;6.72;2.10;;;22.40;99.90;;;;;;4972240;28;20469;-77
2023/08/21 12:24:30;;;;;;;5.43;1.65;;;22.50;99.90;;;;;;4973318;28;20118;-78
2023/08/21 12:26:56;;;;;;;5.65;1.80;;;22.50;99.90;;;;;;4973009;28;20047;-79
2023/08/21 12:29:22;;;;;;;6.35;1.73;;;22.50;99.90;;;;;;4971162;28;20615;-79
2023/08/21 12:31:48;;;;;;;6.65;1.63;;;22.60;99.90;;;;;;4976324;28;20027;-78
2023/08/21 12:34:14;;;;;;;6.55;2.40;;;22.80;99.90;;;;;;4976514;28;20022;-79
2023/08/21 12:36:40;;;;;;;6.50;2.00;;;22.90;99.90;;;;;;4976550;28;20034;-78
2023/08/21 12:39:08;;;;;;;8.68;1.90;;;22.80;99.90;;;;;;4976175;28;20069;-79
2023/08/21 12:41:34;;;;;;;7.88;1.65;;;22.80;99.90;;;;;;4975813;28;20027;-77
2023/08/21 12:44:02;;;;;;;6.68;1.55;;;22.70;99.90;;;;;;4976371;28;20026;-78
2023/08/21 12:46:29;;;;;;;4.05;1.73;;;22.50;99.90;;;;;;4975169;28;20134;-77